createdAt,value
2024-03-16T00:04:55.873Z,87.67
2024-03-16T00:21:34.669Z,88.25
2024-03-16T00:27:01.490Z,89.00
2024-03-16T00:32:21.750Z,88.98
2024-03-16T00:37:26.812Z,88.91
2024-03-16T00:42:29.221Z,88.96
2024-03-16T00:47:37.027Z,88.98
2024-03-16T00:52:47.440Z,89.83
2024-03-16T00:57:56.579Z,89.65
2024-03-16T01:03:12.241Z,90.06
2024-03-16T01:08:29.786Z,90.14
2024-03-16T01:13:32.787Z,89.88
2024-03-16T01:19:05.187Z,89.76
2024-03-16T01:24:16.903Z,89.98
2024-03-16T01:29:27.882Z,90.09
2024-03-16T01:34:32.241Z,90.38
2024-03-16T01:39:47.329Z,90.13
2024-03-16T01:50:43.183Z,90.30
2024-03-16T01:55:51.424Z,90.11
2024-03-16T02:05:38.881Z,90.66
2024-03-16T02:10:58.105Z,90.33
2024-03-16T02:16:04.149Z,90.43
2024-03-16T02:21:20.656Z,90.69
2024-03-16T02:26:26.157Z,90.17
2024-03-16T02:31:43.883Z,90.25
2024-03-16T02:36:53.680Z,89.74
2024-03-16T02:42:04.375Z,90.29
2024-03-16T02:47:10.156Z,90.46
2024-03-16T02:52:14.282Z,90.65
2024-03-16T02:57:27.256Z,90.98
2024-03-16T03:02:45.006Z,91.16
2024-03-16T03:07:51.063Z,91.14
2024-03-16T03:13:03.403Z,91.50
2024-03-16T03:23:41.236Z,91.14
2024-03-16T03:29:27.871Z,91.92
2024-03-16T03:34:34.233Z,91.44
2024-03-16T03:45:53.592Z,91.39
2024-03-16T03:51:02.463Z,91.72
2024-03-16T03:56:12.848Z,91.78
2024-03-16T04:01:15.415Z,91.43
2024-03-16T04:06:50.855Z,92.20
2024-03-16T04:11:53.189Z,91.67
2024-03-16T04:16:58.434Z,91.55
2024-03-16T04:22:13.619Z,92.02
2024-03-16T04:27:21.711Z,91.75
2024-03-16T04:32:29.696Z,91.32
2024-03-16T04:37:40.585Z,91.17
2024-03-16T04:42:47.154Z,90.90
2024-03-16T04:48:06.120Z,91.05
2024-03-16T04:53:25.729Z,91.31
2024-03-16T04:58:31.536Z,91.34
2024-03-16T05:03:34.141Z,91.23
2024-03-16T05:08:37.214Z,91.06
2024-03-16T05:13:43.761Z,90.75
2024-03-16T05:18:46.141Z,90.69
2024-03-16T05:23:48.656Z,90.79
2024-03-16T05:28:51.222Z,90.89
2024-03-16T05:33:53.557Z,91.05
2024-03-16T05:38:55.621Z,91.10
2024-03-16T05:43:57.859Z,90.59
2024-03-16T05:49:00.300Z,90.72
2024-03-16T05:54:05.360Z,91.07
2024-03-16T05:59:19.728Z,90.40
2024-03-16T06:04:30.337Z,90.48
2024-03-16T06:09:41.186Z,90.56
2024-03-16T06:14:45.708Z,90.54
2024-03-16T06:19:51.274Z,90.30
2024-03-16T06:24:53.921Z,90.07
2024-03-16T06:29:57.733Z,90.18
2024-03-16T06:34:59.925Z,89.64
2024-03-16T06:40:01.959Z,90.60
2024-03-16T06:45:05.979Z,89.77
2024-03-16T06:50:14.477Z,89.67
2024-03-16T06:55:24.504Z,88.84
2024-03-16T07:00:29.574Z,88.78
2024-03-16T07:05:34.131Z,88.16
2024-03-16T07:10:36.712Z,87.74
2024-03-16T07:15:40.697Z,86.97
2024-03-16T07:20:43.323Z,86.34
2024-03-16T07:25:50.905Z,84.86
2024-03-16T07:30:59.316Z,82.55
2024-03-16T07:36:02.308Z,80.54
2024-03-16T07:41:07.898Z,78.11
2024-03-16T07:46:10.189Z,77.65
2024-03-16T07:51:15.297Z,76.25
2024-03-16T07:56:19.787Z,75.67
2024-03-16T08:01:24.812Z,74.53
2024-03-16T08:06:27.372Z,73.74
2024-03-16T08:11:34.532Z,71.76
2024-03-16T08:16:39.910Z,70.94
2024-03-16T08:21:42.229Z,70.48
2024-03-16T08:26:44.974Z,69.39
2024-03-16T08:31:49.439Z,67.54
2024-03-16T08:36:57.013Z,65.99
2024-03-16T08:42:01.236Z,65.29
2024-03-16T08:47:03.460Z,65.42
2024-03-16T08:52:05.895Z,64.35
2024-03-16T08:57:14.398Z,63.33
2024-03-16T09:02:22.519Z,63.38
2024-03-16T09:07:25.145Z,62.57
2024-03-16T09:12:30.305Z,62.09
2024-03-16T09:17:34.189Z,61.75
2024-03-16T09:22:39.131Z,60.14
2024-03-16T09:27:44.781Z,59.53
2024-03-16T09:32:47.129Z,59.97
2024-03-16T09:37:49.495Z,59.40
